createdAt,value
2022-08-14T00:00:43.662Z,9.661453
2022-08-14T00:01:43.685Z,9.661505
2022-08-14T00:02:44.759Z,9.661492
2022-08-14T00:03:43.648Z,9.661483
2022-08-14T00:04:44.988Z,9.661540
2022-08-14T00:05:44.330Z,9.661573
2022-08-14T00:06:43.622Z,9.661525
2022-08-14T00:07:43.705Z,9.661517
2022-08-14T00:08:45.433Z,9.661613
2022-08-14T00:10:01.988Z,9.661594
2022-08-14T00:10:52.050Z,9.661669
2022-08-14T00:11:44.605Z,9.661521
2022-08-14T00:12:43.711Z,9.661403
2022-08-14T00:13:43.599Z,9.661486
2022-08-14T00:14:44.606Z,9.661145
2022-08-14T00:15:48.063Z,9.661194
2022-08-14T00:16:44.962Z,9.661230
2022-08-14T00:17:47.840Z,9.661418
2022-08-14T00:19:06.292Z,9.661332
2022-08-14T00:19:44.560Z,9.661351
2022-08-14T00:20:43.549Z,9.661522
2022-08-14T00:21:43.544Z,9.661571
2022-08-14T00:22:56.476Z,9.661578
2022-08-14T00:23:44.553Z,9.661465
2022-08-14T00:24:44.538Z,9.661549
2022-08-14T00:25:43.507Z,9.661287
2022-08-14T00:26:44.502Z,9.661347
2022-08-14T00:27:43.514Z,9.661714
2022-08-14T00:28:44.511Z,9.661858
2022-08-14T00:29:43.528Z,9.662091
2022-08-14T00:30:43.496Z,9.661976
2022-08-14T00:31:45.549Z,9.661835
2022-08-14T00:32:51.978Z,9.661766
2022-08-14T00:33:52.247Z,9.661517
2022-08-14T00:34:47.080Z,9.661480
2022-08-14T00:36:35.991Z,9.661572
2022-08-14T00:36:49.271Z,9.661426
2022-08-14T00:37:43.448Z,9.661487
2022-08-14T00:38:43.442Z,9.661381
2022-08-14T00:39:43.481Z,9.661522
2022-08-14T00:40:46.373Z,9.661570
2022-08-14T00:41:43.438Z,9.661621
2022-08-14T00:42:55.158Z,9.661746
2022-08-14T00:43:44.412Z,9.661864
2022-08-14T00:44:43.416Z,9.661551
2022-08-14T00:45:43.439Z,9.661524
2022-08-14T00:46:44.409Z,9.661530
2022-08-14T00:47:45.213Z,9.661489
2022-08-14T00:48:43.387Z,9.661516
2022-08-14T00:49:43.693Z,9.661542
2022-08-14T00:50:43.389Z,9.661510
2022-08-14T00:51:43.394Z,9.661511
2022-08-14T00:52:43.504Z,9.661551
2022-08-14T00:53:43.751Z,9.661548
2022-08-14T00:54:43.351Z,9.661540
2022-08-14T00:55:43.367Z,9.661545
2022-08-14T00:56:43.366Z,9.661559
2022-08-14T00:57:43.338Z,9.661580
2022-08-14T00:58:45.041Z,9.661537
2022-08-14T00:59:44.337Z,9.661570
2022-08-14T01:00:50.970Z,9.661402
2022-08-14T01:01:44.409Z,9.661571
2022-08-14T01:02:43.510Z,9.661489
2022-08-14T01:03:43.312Z,9.661518
2022-08-14T01:04:54.391Z,9.661532
2022-08-14T01:05:51.771Z,9.661532
2022-08-14T01:06:44.285Z,9.661577
2022-08-14T01:07:50.301Z,9.661564
2022-08-14T01:08:51.911Z,9.661555
2022-08-14T01:09:44.332Z,9.661500
2022-08-14T01:10:43.291Z,9.661502
2022-08-14T01:11:45.034Z,9.661523
2022-08-14T01:12:43.548Z,9.661516
2022-08-14T01:13:43.447Z,9.661494
2022-08-14T01:14:44.232Z,9.661539
2022-08-14T01:15:58.397Z,9.661532
2022-08-14T01:16:44.226Z,9.661550
2022-08-14T01:17:45.863Z,9.661562
2022-08-14T01:18:44.259Z,9.661573
2022-08-14T01:19:44.224Z,9.661579
2022-08-14T01:20:43.215Z,9.661532
2022-08-14T01:21:47.227Z,9.661508
2022-08-14T01:22:45.109Z,9.661511
2022-08-14T01:23:47.095Z,9.661580
2022-08-14T01:24:43.579Z,9.661530
2022-08-14T01:25:43.185Z,9.661479
2022-08-14T01:26:43.793Z,9.661448
2022-08-14T01:27:57.694Z,9.661507
2022-08-14T01:28:56.543Z,9.661622
2022-08-14T01:30:04.329Z,9.661571
2022-08-14T01:30:44.140Z,9.661540
2022-08-14T01:31:43.150Z,9.661495
2022-08-14T01:32:43.186Z,9.661630
2022-08-14T01:33:59.336Z,9.661591
2022-08-14T01:35:17.492Z,9.661641
2022-08-14T01:36:03.816Z,9.661594
2022-08-14T01:36:44.118Z,9.661474
2022-08-14T01:37:44.184Z,9.661283
2022-08-14T01:38:44.199Z,9.661427
2022-08-14T01:39:44.144Z,9.661611
2022-08-14T01:40:43.100Z,9.661510
2022-08-14T01:41:43.392Z,9.661481
2022-08-14T01:42:44.205Z,9.661438
2022-08-14T01:43:43.072Z,9.661566
2022-08-14T01:44:44.087Z,9.661605
2022-08-14T01:45:48.987Z,9.661600
2022-08-14T01:46:43.062Z,9.661544
2022-08-14T01:47:43.075Z,9.661581
2022-08-14T01:48:43.055Z,9.661530
2022-08-14T01:49:46.290Z,9.661591
2022-08-14T01:50:44.258Z,9.661393
2022-08-14T01:51:43.037Z,9.661462
2022-08-14T01:52:59.812Z,9.661538
2022-08-14T01:53:44.025Z,9.661522
2022-08-14T01:54:43.078Z,9.661484
2022-08-14T01:55:43.018Z,9.661434
2022-08-14T01:56:43.037Z,9.661452
2022-08-14T01:57:49.516Z,9.661514
2022-08-14T01:58:58.007Z,9.661507
2022-08-14T01:59:44.008Z,9.661570
2022-08-14T02:00:42.979Z,9.661576
2022-08-14T02:01:51.393Z,9.661698
2022-08-14T02:02:46.437Z,9.661552
2022-08-14T02:03:42.965Z,9.661623
2022-08-14T02:04:57.172Z,9.661611
2022-08-14T02:05:43.949Z,9.661545
2022-08-14T02:06:42.928Z,9.661546
2022-08-14T02:07:53.734Z,9.661576
2022-08-14T02:08:53.147Z,9.661481
2022-08-14T02:09:43.940Z,9.661524
2022-08-14T02:10:47.315Z,9.661538
2022-08-14T02:11:42.927Z,9.661635
2022-08-14T02:12:43.115Z,9.661504
2022-08-14T02:13:43.105Z,9.661623
2022-08-14T02:14:59.246Z,9.661587
2022-08-14T02:15:44.145Z,9.661530
2022-08-14T02:16:42.903Z,9.661532
2022-08-14T02:17:42.892Z,9.661522
2022-08-14T02:18:42.993Z,9.661615
2022-08-14T02:19:42.875Z,9.661577
2022-08-14T02:20:42.853Z,9.661473
2022-08-14T02:21:46.870Z,9.661561
2022-08-14T02:22:47.418Z,9.661593
2022-08-14T02:23:42.861Z,9.661610
2022-08-14T02:24:45.136Z,9.661570
2022-08-14T02:25:42.833Z,9.661630
2022-08-14T02:28:19.142Z,9.661617
2022-08-14T02:28:25.440Z,9.661563
2022-08-14T02:28:57.423Z,9.661568
2022-08-14T02:29:56.456Z,9.661572
2022-08-14T02:30:43.819Z,9.661533
2022-08-14T02:31:43.829Z,9.661510
2022-08-14T02:32:42.806Z,9.661517
2022-08-14T02:33:42.827Z,9.661388
2022-08-14T02:34:42.791Z,9.661523
2022-08-14T02:35:42.802Z,9.661415
2022-08-14T02:37:04.801Z,9.661530
2022-08-14T02:37:47.396Z,9.661670
2022-08-14T02:38:43.774Z,9.661394
2022-08-14T02:39:42.796Z,9.661612
2022-08-14T02:40:42.860Z,9.661500
2022-08-14T02:41:52.500Z,9.661594
2022-08-14T02:42:55.269Z,9.661703
2022-08-14T02:43:48.383Z,9.661762
2022-08-14T02:44:43.120Z,9.661666
2022-08-14T02:45:44.470Z,9.661654
2022-08-14T02:46:42.827Z,9.661780
2022-08-14T02:47:47.473Z,9.661840
2022-08-14T02:49:03.523Z,9.661959
2022-08-14T02:49:43.708Z,9.662155
2022-08-14T02:50:42.702Z,9.662211
2022-08-14T02:51:43.706Z,9.662243
2022-08-14T02:52:57.880Z,9.662156
2022-08-14T02:53:43.682Z,9.662090
2022-08-14T02:54:42.684Z,9.661758
2022-08-14T02:55:42.677Z,9.661563
2022-08-14T02:57:14.301Z,9.661526
2022-08-14T02:57:43.793Z,9.661495
2022-08-14T02:58:42.659Z,9.661515
2022-08-14T02:59:43.285Z,9.661532
2022-08-14T03:00:42.666Z,9.661502
2022-08-14T03:01:43.689Z,9.661500
2022-08-14T03:02:55.887Z,9.661533
2022-08-14T03:03:43.629Z,9.661534
2022-08-14T03:04:42.625Z,9.661488
2022-08-14T03:05:42.610Z,9.661484
2022-08-14T03:06:57.940Z,9.661522
2022-08-14T03:07:42.594Z,9.661511
2022-08-14T03:08:46.084Z,9.661479
2022-08-14T03:10:25.633Z,9.661507
2022-08-14T03:10:48.662Z,9.661485
2022-08-14T03:11:44.771Z,9.661450
2022-08-14T03:12:42.554Z,9.661454
2022-08-14T03:13:42.653Z,9.661432
2022-08-14T03:14:43.564Z,9.661439
2022-08-14T03:15:42.574Z,9.661485
2022-08-14T03:16:42.540Z,9.661477
2022-08-14T03:17:57.487Z,9.661503
2022-08-14T03:18:43.682Z,9.661506
2022-08-14T03:19:42.531Z,9.661484
2022-08-14T03:20:42.534Z,9.661456
2022-08-14T03:21:42.526Z,9.661475
2022-08-14T03:22:42.578Z,9.661503
2022-08-14T03:23:42.934Z,9.661489
2022-08-14T03:24:42.635Z,9.661468
2022-08-14T03:25:42.504Z,9.661479
2022-08-14T03:26:42.501Z,9.661446
2022-08-14T03:27:48.401Z,9.661491
2022-08-14T03:28:42.474Z,9.661497
2022-08-14T03:29:42.527Z,9.661486
2022-08-14T03:30:42.468Z,9.661533
2022-08-14T03:31:42.480Z,9.661509
2022-08-14T03:32:42.520Z,9.661514
2022-08-14T03:33:43.122Z,9.661479
2022-08-14T03:34:48.514Z,9.661468
2022-08-14T03:36:05.472Z,9.661484
2022-08-14T03:37:28.781Z,9.661486
2022-08-14T03:39:10.652Z,9.661464
2022-08-14T03:39:14.959Z,9.661453
2022-08-14T03:39:43.507Z,9.661432
2022-08-14T03:40:42.471Z,9.661389
2022-08-14T03:41:42.412Z,9.661575
2022-08-14T03:42:42.449Z,9.661470
2022-08-14T03:43:42.397Z,9.661497
2022-08-14T03:45:20.037Z,9.661546
2022-08-14T03:45:48.684Z,9.661580
2022-08-14T03:46:52.232Z,9.661561
2022-08-14T03:47:56.034Z,9.661561
2022-08-14T03:48:43.382Z,9.661492
2022-08-14T03:49:42.689Z,9.661461
2022-08-14T03:50:42.356Z,9.661485
2022-08-14T03:51:42.373Z,9.661513
2022-08-14T03:52:55.687Z,9.661464
2022-08-14T03:53:43.350Z,9.661469
2022-08-14T03:54:42.335Z,9.661424
2022-08-14T03:55:42.308Z,9.661424
2022-08-14T03:56:43.363Z,9.661382
2022-08-14T03:57:42.707Z,9.661454
2022-08-14T03:58:42.330Z,9.661506
2022-08-14T03:59:42.290Z,9.661495
2022-08-14T04:00:44.805Z,9.661461
2022-08-14T04:01:45.826Z,9.661436
2022-08-14T04:02:46.763Z,9.661411
2022-08-14T04:03:42.295Z,9.661388
2022-08-14T04:04:42.284Z,9.661399
2022-08-14T04:05:43.092Z,9.661433
2022-08-14T04:06:44.523Z,9.661561
2022-08-14T04:08:00.143Z,9.661584
2022-08-14T04:08:43.268Z,9.661553
2022-08-14T04:09:42.276Z,9.661492
2022-08-14T04:10:42.254Z,9.661593
2022-08-14T04:11:42.284Z,9.661494
2022-08-14T04:12:42.373Z,9.661407
2022-08-14T04:13:43.227Z,9.661509
2022-08-14T04:14:42.250Z,9.661404
2022-08-14T04:16:01.019Z,9.661419
2022-08-14T04:16:42.233Z,9.661572
2022-08-14T04:17:42.241Z,9.661514
2022-08-14T04:18:42.446Z,9.661609
2022-08-14T04:19:42.193Z,9.661660
2022-08-14T04:20:54.329Z,9.661640
2022-08-14T04:22:03.185Z,9.661555
2022-08-14T04:22:43.372Z,9.661416
2022-08-14T04:23:42.213Z,9.661407
2022-08-14T04:24:42.189Z,9.661508
2022-08-14T04:25:42.203Z,9.661690
2022-08-14T04:26:43.353Z,9.661762
2022-08-14T04:28:01.665Z,9.661633
2022-08-14T04:29:08.943Z,9.661840
2022-08-14T04:29:44.827Z,9.661493
2022-08-14T04:30:43.159Z,9.661303
2022-08-14T04:32:58.136Z,9.661485
2022-08-14T04:33:10.698Z,9.661740
2022-08-14T04:33:43.106Z,9.661609
2022-08-14T04:34:42.287Z,9.661405
2022-08-14T04:35:53.550Z,9.661491
2022-08-14T04:36:42.096Z,9.661646
2022-08-14T04:37:42.226Z,9.661638
2022-08-14T04:38:42.084Z,9.661468
2022-08-14T04:39:46.426Z,9.661512
2022-08-14T04:40:42.066Z,9.661577
2022-08-14T04:41:43.164Z,9.661502
2022-08-14T04:42:47.272Z,9.661492
2022-08-14T04:43:43.157Z,9.661501
2022-08-14T04:44:42.058Z,9.661548
2022-08-14T04:45:43.046Z,9.661561
2022-08-14T04:46:56.250Z,9.661615
2022-08-14T04:47:46.413Z,9.661592
2022-08-14T04:48:43.734Z,9.661547
2022-08-14T04:49:46.592Z,9.661532
2022-08-14T04:50:44.534Z,9.661506
2022-08-14T04:51:55.455Z,9.661533
2022-08-14T04:52:43.182Z,9.661539
2022-08-14T04:53:43.417Z,9.661594
2022-08-14T04:54:42.046Z,9.661621
2022-08-14T04:55:41.999Z,9.661573
2022-08-14T04:56:42.736Z,9.661643
2022-08-14T04:57:41.991Z,9.661445
2022-08-14T04:58:41.979Z,9.661548
2022-08-14T04:59:42.901Z,9.661530
2022-08-14T05:00:41.974Z,9.661591
2022-08-14T05:01:47.898Z,9.661617
2022-08-14T05:02:43.311Z,9.661477
2022-08-14T05:03:41.957Z,9.661325
2022-08-14T05:04:45.152Z,9.661444
2022-08-14T05:05:42.989Z,9.661512
2022-08-14T05:06:41.952Z,9.661569
2022-08-14T05:07:54.311Z,9.661511
2022-08-14T05:08:57.040Z,9.661476
2022-08-14T05:09:43.875Z,9.661570
2022-08-14T05:10:44.173Z,9.661549
2022-08-14T05:11:41.941Z,9.661510
2022-08-14T05:13:13.018Z,9.661552
2022-08-14T05:14:53.454Z,9.661479
2022-08-14T05:15:42.900Z,9.661511
2022-08-14T05:16:42.002Z,9.661512
2022-08-14T05:17:44.085Z,9.661638
2022-08-14T05:19:24.775Z,9.661556
2022-08-14T05:19:44.273Z,9.661638
2022-08-14T05:21:55.938Z,9.661801
2022-08-14T05:21:59.859Z,9.661713
2022-08-14T05:22:43.094Z,9.661528
2022-08-14T05:23:42.061Z,9.661552
2022-08-14T05:24:41.833Z,9.661637
2022-08-14T05:25:41.811Z,9.661606
2022-08-14T05:26:41.822Z,9.661545
2022-08-14T05:27:41.940Z,9.661553
2022-08-14T05:28:41.818Z,9.661540
2022-08-14T05:29:41.963Z,9.661569
2022-08-14T05:30:41.796Z,9.661613
2022-08-14T05:31:41.774Z,9.661530
2022-08-14T05:32:41.919Z,9.661572
2022-08-14T05:33:41.790Z,9.661532
2022-08-14T05:34:41.776Z,9.661519
2022-08-14T05:35:42.601Z,9.661641
2022-08-14T05:36:41.804Z,9.661542
2022-08-14T05:37:46.072Z,9.661556
2022-08-14T05:38:41.877Z,9.661541
2022-08-14T05:39:41.776Z,9.661526
2022-08-14T05:40:41.794Z,9.661554
2022-08-14T05:41:53.499Z,9.661520
2022-08-14T05:42:42.743Z,9.661459
2022-08-14T05:43:42.747Z,9.661522
2022-08-14T05:44:41.728Z,9.661572
2022-08-14T05:45:41.748Z,9.661620
2022-08-14T05:46:41.700Z,9.661634
2022-08-14T05:47:41.741Z,9.661511
2022-08-14T05:48:43.062Z,9.661311
2022-08-14T05:49:41.725Z,9.661330
2022-08-14T05:50:41.699Z,9.661459
2022-08-14T05:51:41.679Z,9.661436
2022-08-14T05:52:41.694Z,9.661448
2022-08-14T05:53:42.151Z,9.661413
2022-08-14T05:54:41.817Z,9.661449
2022-08-14T05:55:44.249Z,9.661514
2022-08-14T05:56:41.676Z,9.661412
2022-08-14T05:57:41.661Z,9.661659
2022-08-14T05:58:41.719Z,9.661731
2022-08-14T05:59:41.638Z,9.661708
2022-08-14T06:00:41.672Z,9.661589
2022-08-14T06:01:41.670Z,9.661621
2022-08-14T06:02:41.633Z,9.661662
2022-08-14T06:03:41.634Z,9.661571
2022-08-14T06:04:41.630Z,9.661589
2022-08-14T06:05:41.638Z,9.661577
2022-08-14T06:06:41.617Z,9.661607
2022-08-14T06:07:41.600Z,9.661569
2022-08-14T06:08:41.971Z,9.661588
2022-08-14T06:09:41.583Z,9.661601
2022-08-14T06:10:41.599Z,9.661541
2022-08-14T06:11:41.679Z,9.661557
2022-08-14T06:12:55.554Z,9.661515
2022-08-14T06:13:44.999Z,9.661604
2022-08-14T06:14:41.591Z,9.661561
2022-08-14T06:15:41.553Z,9.661504
2022-08-14T06:16:41.662Z,9.661535
2022-08-14T06:17:46.994Z,9.661474
2022-08-14T06:18:42.541Z,9.661512
2022-08-14T06:19:41.523Z,9.661533
2022-08-14T06:20:41.531Z,9.661477
2022-08-14T06:21:41.517Z,9.661466
2022-08-14T06:22:41.536Z,9.661426
2022-08-14T06:23:41.504Z,9.661448
2022-08-14T06:24:44.069Z,9.661402
2022-08-14T06:25:41.482Z,9.661425
2022-08-14T06:26:41.489Z,9.661365
2022-08-14T06:27:42.600Z,9.661444
2022-08-14T06:28:41.477Z,9.661444
2022-08-14T06:29:41.487Z,9.661417
2022-08-14T06:30:45.583Z,9.661406
2022-08-14T06:31:42.486Z,9.661451
2022-08-14T06:32:42.142Z,9.661516
2022-08-14T06:35:02.186Z,9.661470
2022-08-14T06:35:11.738Z,9.661429
2022-08-14T06:35:42.453Z,9.661489
2022-08-14T06:36:41.436Z,9.661515
2022-08-14T06:37:41.617Z,9.661519
2022-08-14T06:38:41.522Z,9.661481
2022-08-14T06:39:41.408Z,9.661467
2022-08-14T06:40:43.058Z,9.661595
2022-08-14T06:41:57.953Z,9.661499
2022-08-14T06:42:42.409Z,9.661541
2022-08-14T06:43:45.183Z,9.661533
2022-08-14T06:44:41.402Z,9.661373
2022-08-14T06:45:42.081Z,9.661407
2022-08-14T06:46:41.395Z,9.661422
2022-08-14T06:47:43.955Z,9.661391
2022-08-14T06:48:41.943Z,9.661407
2022-08-14T06:49:45.005Z,9.661396
2022-08-14T06:50:41.394Z,9.661385
2022-08-14T06:51:44.501Z,9.661450
2022-08-14T06:52:41.344Z,9.661446
2022-08-14T06:53:42.331Z,9.661533
2022-08-14T06:54:42.475Z,9.661480
2022-08-14T06:55:41.350Z,9.661525
2022-08-14T06:56:44.165Z,9.661358
2022-08-14T06:57:41.327Z,9.661441
2022-08-14T06:58:41.321Z,9.661386
2022-08-14T06:59:41.295Z,9.661321
2022-08-14T07:00:41.404Z,9.661342
2022-08-14T07:01:41.353Z,9.661368
2022-08-14T07:02:43.430Z,9.661553
2022-08-14T07:03:42.286Z,9.661567
2022-08-14T07:04:41.273Z,9.661492
2022-08-14T07:05:41.293Z,9.661453
2022-08-14T07:06:46.664Z,9.661489
2022-08-14T07:07:41.274Z,9.661432
2022-08-14T07:08:41.288Z,9.661504
2022-08-14T07:09:50.725Z,9.661422
2022-08-14T07:10:42.298Z,9.661431
2022-08-14T07:11:41.259Z,9.661435
2022-08-14T07:13:01.814Z,9.661366
2022-08-14T07:13:42.249Z,9.661305
2022-08-14T07:14:41.231Z,9.661427
2022-08-14T07:15:42.370Z,9.661443
2022-08-14T07:16:41.327Z,9.661472
2022-08-14T07:17:41.227Z,9.661487
2022-08-14T07:18:41.232Z,9.661426
2022-08-14T07:19:41.205Z,9.661484
2022-08-14T07:20:42.131Z,9.661488
2022-08-14T07:21:41.227Z,9.661497
2022-08-14T07:22:56.388Z,9.661502
2022-08-14T07:23:44.306Z,9.661539
2022-08-14T07:24:41.182Z,9.661456
2022-08-14T07:25:42.173Z,9.661495
2022-08-14T07:26:41.174Z,9.661510
2022-08-14T07:27:42.864Z,9.661542
2022-08-14T07:28:43.241Z,9.661525
2022-08-14T07:29:41.170Z,9.661484
2022-08-14T07:30:41.942Z,9.661505
2022-08-14T07:31:42.172Z,9.661517
2022-08-14T07:32:41.178Z,9.661495
2022-08-14T07:33:41.815Z,9.661517
2022-08-14T07:34:41.508Z,9.661513
2022-08-14T07:35:57.960Z,9.661472
2022-08-14T07:36:57.962Z,9.661463
2022-08-14T07:37:41.141Z,9.661487
2022-08-14T07:38:41.166Z,9.661489
2022-08-14T07:39:43.984Z,9.661507
2022-08-14T07:40:41.099Z,9.661489
2022-08-14T07:41:42.454Z,9.661498
2022-08-14T07:42:41.168Z,9.661468
2022-08-14T07:43:41.105Z,9.661494
2022-08-14T07:44:46.379Z,9.661490
2022-08-14T07:45:42.101Z,9.661511
2022-08-14T07:46:41.062Z,9.661489
2022-08-14T07:47:41.075Z,9.661502
2022-08-14T07:48:41.339Z,9.661490
2022-08-14T07:49:41.084Z,9.661522
2022-08-14T07:50:41.074Z,9.661509
2022-08-14T07:51:41.038Z,9.661469
2022-08-14T07:52:42.364Z,9.661512
2022-08-14T07:53:41.263Z,9.661513
2022-08-14T07:54:41.144Z,9.661508
2022-08-14T07:55:41.019Z,9.661451
2022-08-14T07:56:47.510Z,9.661485
2022-08-14T07:57:42.010Z,9.661487
2022-08-14T07:58:51.890Z,9.661543
2022-08-14T07:59:44.271Z,9.661483
2022-08-14T08:00:40.975Z,9.661488
2022-08-14T08:01:48.309Z,9.661501
2022-08-14T08:02:41.991Z,9.661428
2022-08-14T08:03:40.988Z,9.661422
2022-08-14T08:04:40.945Z,9.661435
2022-08-14T08:05:40.965Z,9.661437
2022-08-14T08:06:40.953Z,9.661427
2022-08-14T08:07:40.928Z,9.661435
2022-08-14T08:08:40.968Z,9.661435
2022-08-14T08:09:40.925Z,9.661388
2022-08-14T08:11:01.424Z,9.661375
2022-08-14T08:11:40.942Z,9.661348
2022-08-14T08:12:40.973Z,9.661440
2022-08-14T08:13:40.912Z,9.661336
2022-08-14T08:14:55.660Z,9.661505
2022-08-14T08:15:42.093Z,9.661524
2022-08-14T08:16:40.889Z,9.661319
2022-08-14T08:17:42.819Z,9.661359
2022-08-14T08:18:41.899Z,9.661380
2022-08-14T08:19:41.073Z,9.661433
2022-08-14T08:20:40.895Z,9.661420
2022-08-14T08:21:43.542Z,9.661360
2022-08-14T08:22:40.880Z,9.661358
2022-08-14T08:23:51.003Z,9.661439
2022-08-14T08:24:41.870Z,9.661392
2022-08-14T08:25:40.847Z,9.661437
2022-08-14T08:26:40.971Z,9.661430
2022-08-14T08:27:44.691Z,9.661474
2022-08-14T08:28:43.758Z,9.661537
2022-08-14T08:29:40.832Z,9.661509
2022-08-14T08:30:49.259Z,9.661448
2022-08-14T08:31:44.866Z,9.661488
2022-08-14T08:32:41.968Z,9.661457
2022-08-14T08:33:40.819Z,9.661356
2022-08-14T08:34:40.809Z,9.661302
2022-08-14T08:35:46.823Z,9.661456
2022-08-14T08:36:41.924Z,9.661440
2022-08-14T08:37:43.597Z,9.661537
2022-08-14T08:39:18.774Z,9.661588
2022-08-14T08:40:01.265Z,9.661588
2022-08-14T08:40:42.190Z,9.661588
2022-08-14T08:41:40.764Z,9.661544
2022-08-14T08:42:44.869Z,9.661379
2022-08-14T08:43:47.187Z,9.661437
2022-08-14T08:44:40.776Z,9.661468
2022-08-14T08:45:40.790Z,9.661463
2022-08-14T08:46:40.763Z,9.661479
2022-08-14T08:47:40.761Z,9.661473
2022-08-14T08:48:50.157Z,9.661474
2022-08-14T08:49:43.287Z,9.661443
2022-08-14T08:55:27.351Z,9.661746
2022-08-14T08:56:30.228Z,9.661698
2022-08-14T08:57:28.330Z,9.661938
2022-08-14T08:58:27.364Z,9.662041
2022-08-14T08:59:31.157Z,9.662024
2022-08-14T09:00:28.321Z,9.662017
2022-08-14T09:01:27.337Z,9.662125
2022-08-14T09:02:36.795Z,9.662226
2022-08-14T09:03:27.764Z,9.662506
2022-08-14T09:04:27.304Z,9.662181
2022-08-14T09:05:27.331Z,9.661775
2022-08-14T09:06:56.947Z,9.661683
2022-08-14T09:07:28.298Z,9.661756
2022-08-14T09:08:32.678Z,9.661345
2022-08-14T09:09:30.460Z,9.661332
2022-08-14T09:10:29.295Z,9.661347
2022-08-14T09:11:27.282Z,9.661537
2022-08-14T09:12:32.515Z,9.661564
2022-08-14T09:13:30.572Z,9.661742
2022-08-14T09:14:27.273Z,9.661601
2022-08-14T09:15:27.253Z,9.661613
2022-08-14T09:16:28.268Z,9.661613
2022-08-14T09:17:27.851Z,9.661654
2022-08-14T09:18:27.245Z,9.661735
2022-08-14T09:19:27.241Z,9.661682
2022-08-14T09:20:30.699Z,9.661778
2022-08-14T09:21:31.157Z,9.661802
2022-08-14T09:22:36.167Z,9.661988
2022-08-14T09:23:34.879Z,9.661888
2022-08-14T09:24:35.356Z,9.661773
2022-08-14T09:26:00.756Z,9.661707
2022-08-14T09:26:28.656Z,9.661668
2022-08-14T09:27:27.229Z,9.661638
2022-08-14T09:28:27.190Z,9.661667
2022-08-14T09:29:28.806Z,9.661723
2022-08-14T09:30:31.046Z,9.661645
2022-08-14T09:31:27.181Z,9.661683
2022-08-14T09:32:58.725Z,9.661780
2022-08-14T09:33:27.189Z,9.661678
2022-08-14T09:34:27.907Z,9.661605
2022-08-14T09:35:27.826Z,9.661637
2022-08-14T09:36:27.171Z,9.661723
2022-08-14T09:37:27.184Z,9.661644
2022-08-14T09:38:27.340Z,9.661668
2022-08-14T09:39:27.225Z,9.661641
2022-08-14T09:40:29.293Z,9.661671
2022-08-14T09:41:27.143Z,9.661729
2022-08-14T09:42:33.072Z,9.661691
2022-08-14T09:43:27.246Z,9.661754
2022-08-14T09:44:27.149Z,9.661711
2022-08-14T09:45:30.372Z,9.661705
2022-08-14T09:46:28.134Z,9.661598
2022-08-14T09:47:27.115Z,9.661583
2022-08-14T09:48:30.716Z,9.661596
2022-08-14T09:49:28.231Z,9.661530
2022-08-14T09:50:27.140Z,9.661521
2022-08-14T09:51:32.907Z,9.661479
2022-08-14T09:52:34.201Z,9.661506
2022-08-14T09:54:12.693Z,9.661481
2022-08-14T09:54:28.202Z,9.661505
2022-08-14T09:55:27.838Z,9.661517
2022-08-14T09:56:30.839Z,9.661499
2022-08-14T09:57:27.680Z,9.661514
2022-08-14T09:58:27.092Z,9.661507
2022-08-14T09:59:28.370Z,9.661555
2022-08-14T10:00:29.588Z,9.661488
2022-08-14T10:01:27.075Z,9.661508
2022-08-14T10:02:28.419Z,9.661517
2022-08-14T10:03:28.714Z,9.661508
2022-08-14T10:04:34.744Z,9.661539
2022-08-14T10:05:28.159Z,9.661523
2022-08-14T10:06:28.370Z,9.661496
2022-08-14T10:07:27.035Z,9.661484
2022-08-14T10:08:27.023Z,9.661497
2022-08-14T10:09:28.054Z,9.661508
2022-08-14T10:10:27.034Z,9.661489
2022-08-14T10:11:34.967Z,9.661505
2022-08-14T10:12:29.223Z,9.661465
2022-08-14T10:13:27.021Z,9.661501
2022-08-14T10:14:29.427Z,9.661500
2022-08-14T10:15:27.762Z,9.661526
2022-08-14T10:16:32.968Z,9.661533
2022-08-14T10:17:32.920Z,9.661533
2022-08-14T10:18:28.004Z,9.661480
2022-08-14T10:19:26.991Z,9.661506
2022-08-14T10:20:40.548Z,9.661515
2022-08-14T10:21:28.003Z,9.661453
2022-08-14T10:23:15.202Z,9.661501
2022-08-14T10:23:33.974Z,9.661525
2022-08-14T10:24:36.125Z,9.661531
2022-08-14T10:25:27.977Z,9.661499
2022-08-14T10:26:28.617Z,9.661502
2022-08-14T10:27:27.157Z,9.661436
2022-08-14T10:28:29.125Z,9.661470
2022-08-14T10:29:26.940Z,9.661547
2022-08-14T10:30:26.938Z,9.661587
2022-08-14T10:31:27.113Z,9.661561
2022-08-14T10:32:28.560Z,9.661610
2022-08-14T10:33:26.926Z,9.661555
2022-08-14T10:34:33.270Z,9.661524
2022-08-14T10:35:30.924Z,9.661600
2022-08-14T10:36:34.765Z,9.661633
2022-08-14T10:37:28.142Z,9.661689
2022-08-14T10:38:26.923Z,9.661639
2022-08-14T10:39:26.920Z,9.661631
2022-08-14T10:40:37.327Z,9.661687
2022-08-14T10:41:31.739Z,9.661656
2022-08-14T10:42:26.898Z,9.661739
2022-08-14T10:43:26.886Z,9.661850
2022-08-14T10:44:29.692Z,9.661732
2022-08-14T10:45:26.879Z,9.661787
2022-08-14T10:47:37.878Z,9.661736
2022-08-14T10:47:40.604Z,9.661586
2022-08-14T10:48:36.420Z,9.661658
2022-08-14T10:49:27.867Z,9.661593
2022-08-14T10:50:26.904Z,9.661543
2022-08-14T10:51:26.892Z,9.661539
2022-08-14T10:52:26.862Z,9.661564
2022-08-14T10:53:26.860Z,9.661596
2022-08-14T10:54:36.265Z,9.661637
2022-08-14T10:55:26.845Z,9.661652
2022-08-14T10:56:33.727Z,9.661614
2022-08-14T10:57:27.832Z,9.661609
2022-08-14T10:58:26.840Z,9.661586
2022-08-14T10:59:35.484Z,9.661616
2022-08-14T11:00:30.140Z,9.661608
2022-08-14T11:01:27.823Z,9.661586
2022-08-14T11:02:44.789Z,9.661539
2022-08-14T11:03:55.197Z,9.661573
2022-08-14T11:04:27.932Z,9.661570
2022-08-14T11:05:26.844Z,9.661591
2022-08-14T11:06:27.234Z,9.661577
2022-08-14T11:07:26.793Z,9.661616
2022-08-14T11:08:26.792Z,9.661627
2022-08-14T11:09:31.467Z,9.661598
2022-08-14T11:10:28.053Z,9.661562
2022-08-14T11:11:26.771Z,9.661550
2022-08-14T11:12:44.092Z,9.661496
2022-08-14T11:13:28.813Z,9.661510
2022-08-14T11:14:26.773Z,9.661514
2022-08-14T11:15:26.785Z,9.661554
2022-08-14T11:16:26.877Z,9.661549
2022-08-14T11:17:26.753Z,9.661531
2022-08-14T11:18:32.599Z,9.661526
2022-08-14T11:19:26.756Z,9.661490
2022-08-14T11:20:26.767Z,9.661489
2022-08-14T11:21:26.861Z,9.661500
2022-08-14T11:22:52.565Z,9.661505
2022-08-14T11:23:27.723Z,9.661501
2022-08-14T11:24:54.153Z,9.661530
2022-08-14T11:25:43.858Z,9.661500
2022-08-14T11:26:27.829Z,9.661502
2022-08-14T11:27:33.439Z,9.661528
2022-08-14T11:28:47.188Z,9.661547
2022-08-14T11:29:27.810Z,9.661531
2022-08-14T11:30:50.314Z,9.661563
2022-08-14T11:31:27.715Z,9.661510
2022-08-14T11:32:27.726Z,9.661481
2022-08-14T11:33:26.683Z,9.661495
2022-08-14T11:34:32.553Z,9.661455
2022-08-14T11:35:26.675Z,9.661444
2022-08-14T11:37:02.157Z,9.661383
2022-08-14T11:37:36.357Z,9.661426
2022-08-14T11:38:27.657Z,9.661502
2022-08-14T11:39:34.555Z,9.661493
2022-08-14T11:40:29.268Z,9.661493
2022-08-14T11:41:26.652Z,9.661472
2022-08-14T11:42:56.388Z,9.661483
2022-08-14T11:43:29.478Z,9.661477
2022-08-14T11:44:45.893Z,9.661502
2022-08-14T11:45:29.896Z,9.661492
2022-08-14T11:46:30.117Z,9.661509
2022-08-14T11:47:35.603Z,9.661486
2022-08-14T11:48:59.161Z,9.661461
2022-08-14T11:49:26.634Z,9.661425
2022-08-14T11:50:36.322Z,9.661461